This is the latest recevied weather packets stored in our database for station/object KA5ZCI. If no packets are shown the sender has not sent any weather packets the latest 10 day(s).
| Time | Temp. | Humidity | Pressure | Rain* | Wind** | Luminosity | Snow |
|---|---|---|---|---|---|---|---|
| 1777266904 | 22.78° C | 88% | 1012.5 hPa | 0 mm | - | 0 W/m² | - |
| 1777264504 | 23.33° C | 86% | 1012.4 hPa | 0 mm | - | 0 W/m² | - |
| 1777262704 | 23.33° C | 87% | 1012.4 hPa | 0 mm | - | 0 W/m² | - |
| 1777259704 | 23.89° C | 85% | 1012.2 hPa | 0 mm | - | 0 W/m² | - |
| 1777259403 | 23.89° C | 85% | 1012.1 hPa | 0 mm | - | 0 W/m² | - |
| 1777258204 | 24.44° C | 83% | 1012 hPa | 0 mm | - | 0 W/m² | - |
| 1777257604 | 24.44° C | 82% | 1011.9 hPa | 0 mm | - | 0 W/m² | - |
| 1777256704 | 24.44° C | 82% | 1011.8 hPa | 0 mm | - | 0 W/m² | - |
| 1777256404 | 24.44° C | 82% | 1011.8 hPa | 0 mm | - | 0 W/m² | - |
| 1777255804 | 24.44° C | 82% | 1011.8 hPa | 0 mm | - | 0 W/m² | - |
| 1777254604 | 24.44° C | 80% | 1011.7 hPa | 0 mm | - | 0 W/m² | - |
| 1777254304 | 25° C | 80% | 1011.7 hPa | 0 mm | - | 0 W/m² | - |
| 1777249503 | 26.67° C | 71% | 1011.1 hPa | 0 mm | - | 0 W/m² | - |
| 1777248303 | 27.22° C | 70% | 1011.1 hPa | 0 mm | - | 0 W/m² | - |
| 1777245003 | 27.78° C | 69% | 1010.7 hPa | 0 mm | - | 0 W/m² | - |
| 1777240203 | 29.44° C | 61% | 1010.6 hPa | 0 mm | - | 0 W/m² | - |
| 1777239604 | 28.89° C | 63% | 1010.6 hPa | 0 mm | - | 0 W/m² | - |
| 1777239304 | 29.44° C | 61% | 1010.7 hPa | 0 mm | - | 0 W/m² | - |
| 1777236904 | 30.56° C | 56% | 1010.7 hPa | 0 mm | - | 0 W/m² | - |
| 1777234804 | 29.44° C | 58% | 1011 hPa | 0 mm | - | 0 W/m² | - |
| 1777234204 | 28.89° C | 59% | 1011.1 hPa | 0 mm | - | 0 W/m² | - |
| 1777233903 | 29.44° C | 59% | 1011 hPa | 0 mm | - | 0 W/m² | - |
| 1777227004 | 28.33° C | 59% | 1011.8 hPa | 0 mm | - | 0 W/m² | - |
| 1777225803 | 27.78° C | 60% | 1012 hPa | 0 mm | - | 0 W/m² | - |
| 1777222503 | 26.11° C | 64% | 1012.5 hPa | 0 mm | - | 0 W/m² | - |
* Rain latest hour (hover to see other rain measurements)
** Current wind speed in m/s (hover to see current wind gust speed)